Terminal Aerodrome Forecast
Issued by NWS Shreveport, LA

Home | Current Version | Previous Version | Text Only | Print | Product List | Glossary On
Versions: 1 2 3 4 5 6 7 8 9 10 11 12 13 14 15 16 17 18 19 20 21 22 23 24 25 26 27 28
018
FTUS44 KSHV 231143
TAFTXK
TAF
KTXK 231143Z 2312/2412 VRB03KT 5SM -SHRA BR SCT010 OVC050
      TEMPO 2312/2315 2SM TSRA BR OVC007CB
     FM231500 08004KT P6SM VCTS OVC012CB
     FM232000 14006KT P6SM OVC020
      TEMPO 2322/2402 BKN030
     FM240500 12005KT P6SM OVC010
     FM240900 16006KT 4SM -DZ BR OVC005=

USA.gov is the U.S. government's official web portal to all federal, state and local government web resources and services.